sensor_id;sensor_type;location;lat;lon;timestamp;pressure;altitude;pressure_sealevel;temperature;humidity
51299;BME280;37382;45.192;9.790;2023-04-21T00:00:45;100909.13;;;13.17;100.00
51299;BME280;37382;45.192;9.790;2023-04-21T00:03:13;100907.22;;;13.11;100.00
51299;BME280;37382;45.192;9.790;2023-04-21T00:05:40;100914.59;;;12.97;100.00
51299;BME280;37382;45.192;9.790;2023-04-21T00:08:09;100908.66;;;12.74;100.00
51299;BME280;37382;45.192;9.790;2023-04-21T00:10:37;100908.06;;;12.85;100.00
51299;BME280;37382;45.192;9.790;2023-04-21T00:13:04;100901.34;;;12.94;100.00
51299;BME280;37382;45.192;9.790;2023-04-21T00:15:32;100904.28;;;12.79;100.00
51299;BME280;37382;45.192;9.790;2023-04-21T00:17:59;100903.66;;;12.97;100.00
51299;BME280;37382;45.192;9.790;2023-04-21T00:20:27;100904.28;;;12.99;100.00
51299;BME280;37382;45.192;9.790;2023-04-21T00:22:55;100904.28;;;12.99;100.00
51299;BME280;37382;45.192;9.790;2023-04-21T00:25:23;100908.69;;;12.94;100.00
51299;BME280;37382;45.192;9.790;2023-04-21T00:27:51;100901.53;;;12.86;100.00
51299;BME280;37382;45.192;9.790;2023-04-21T00:30:18;100893.34;;;13.06;100.00
51299;BME280;37382;45.192;9.790;2023-04-21T00:32:46;100887.25;;;13.04;100.00
51299;BME280;37382;45.192;9.790;2023-04-21T00:35:14;100897.34;;;13.04;100.00
51299;BME280;37382;45.192;9.790;2023-04-21T00:37:41;100893.59;;;12.91;100.00
51299;BME280;37382;45.192;9.790;2023-04-21T00:40:10;100896.72;;;13.08;100.00
51299;BME280;37382;45.192;9.790;2023-04-21T00:42:40;100885.16;;;13.13;100.00
51299;BME280;37382;45.192;9.790;2023-04-21T00:45:07;100887.66;;;13.08;100.00
51299;BME280;37382;45.192;9.790;2023-04-21T00:47:35;100882.63;;;13.05;100.00
51299;BME280;37382;45.192;9.790;2023-04-21T00:50:03;100879.91;;;13.18;100.00
51299;BME280;37382;45.192;9.790;2023-04-21T00:52:32;100891.88;;;12.90;100.00
51299;BME280;37382;45.192;9.790;2023-04-21T00:55:02;100888.31;;;12.83;100.00
51299;BME280;37382;45.192;9.790;2023-04-21T00:57:31;100897.13;;;12.92;100.00
51299;BME280;37382;45.192;9.790;2023-04-21T00:59:58;100891.06;;;12.90;100.00
51299;BME280;37382;45.192;9.790;2023-04-21T01:02:25;100891.25;;;12.95;100.00
51299;BME280;37382;45.192;9.790;2023-04-21T01:04:54;100892.09;;;12.82;100.00
51299;BME280;37382;45.192;9.790;2023-04-21T01:07:24;100886.44;;;12.84;100.00
51299;BME280;37382;45.192;9.790;2023-04-21T01:09:51;100882.84;;;12.76;100.00
51299;BME280;37382;45.192;9.790;2023-04-21T01:12:19;100889.38;;;12.89;100.00
51299;BME280;37382;45.192;9.790;2023-04-21T01:14:48;100897.78;;;12.80;100.00
51299;BME280;37382;45.192;9.790;2023-04-21T01:17:16;100885.38;;;12.98;100.00
51299;BME280;37382;45.192;9.790;2023-04-21T01:19:47;100882.03;;;12.96;100.00
51299;BME280;37382;45.192;9.790;2023-04-21T01:22:15;100894.00;;;13.08;100.00
51299;BME280;37382;45.192;9.790;2023-04-21T01:24:47;100881.38;;;13.07;100.00
51299;BME280;37382;45.192;9.790;2023-04-21T01:27:17;100890.41;;;13.01;100.00
51299;BME280;37382;45.192;9.790;2023-04-21T01:29:49;100895.44;;;12.91;100.00
51299;BME280;37382;45.192;9.790;2023-04-21T01:32:19;100894.22;;;12.87;100.00
51299;BME280;37382;45.192;9.790;2023-04-21T01:34:48;100891.88;;;13.10;100.00
51299;BME280;37382;45.192;9.790;2023-04-21T01:37:19;100899.22;;;12.83;100.00
51299;BME280;37382;45.192;9.790;2023-04-21T01:39:51;100891.91;;;12.84;100.00
51299;BME280;37382;45.192;9.790;2023-04-21T01:42:22;100885.59;;;12.76;100.00
51299;BME280;37382;45.192;9.790;2023-04-21T01:44:51;100890.00;;;12.84;100.00
51299;BME280;37382;45.192;9.790;2023-04-21T01:47:21;100888.09;;;12.85;100.00
51299;BME280;37382;45.192;9.790;2023-04-21T01:49:48;100892.50;;;12.79;100.00
51299;BME280;37382;45.192;9.790;2023-04-21T01:52:16;100891.47;;;13.00;100.00
51299;BME280;37382;45.192;9.790;2023-04-21T01:54:45;100894.19;;;12.93;100.00
51299;BME280;37382;45.192;9.790;2023-04-21T01:57:14;100890.41;;;13.01;100.00
51299;BME280;37382;45.192;9.790;2023-04-21T01:59:42;100907.41;;;13.03;100.00
51299;BME280;37382;45.192;9.790;2023-04-21T02:02:11;100903.88;;;12.96;100.00
51299;BME280;37382;45.192;9.790;2023-04-21T02:04:38;100904.50;;;12.98;100.00
51299;BME280;37382;45.192;9.790;2023-04-21T02:07:06;100899.44;;;13.02;100.00
51299;BME280;37382;45.192;9.790;2023-04-21T02:09:34;100899.47;;;13.08;100.00
51299;BME280;37382;45.192;9.790;2023-04-21T02:12:01;100900.28;;;12.89;100.00
51299;BME280;37382;45.192;9.790;2023-04-21T02:14:30;100901.97;;;13.03;100.00
51299;BME280;37382;45.192;9.790;2023-04-21T02:16:58;100909.53;;;12.94;100.00
51299;BME280;37382;45.192;9.790;2023-04-21T02:19:27;100907.66;;;12.88;100.00
51299;BME280;37382;45.192;9.790;2023-04-21T02:21:55;100902.81;;;13.10;100.00
51299;BME280;37382;45.192;9.790;2023-04-21T02:24:23;100897.56;;;13.09;100.00
51299;BME280;37382;45.192;9.790;2023-04-21T02:26:52;100897.75;;;13.07;100.00
51299;BME280;37382;45.192;9.790;2023-04-21T02:29:20;100897.75;;;13.14;100.00
51299;BME280;37382;45.192;9.790;2023-04-21T02:31:47;100892.53;;;13.19;100.00
51299;BME280;37382;45.192;9.790;2023-04-21T02:34:30;100905.75;;;13.02;100.00
51299;BME280;37382;45.192;9.790;2023-04-21T02:36:57;100898.63;;;13.14;100.00
51299;BME280;37382;45.192;9.790;2023-04-21T02:39:25;100897.97;;;13.26;100.00
51299;BME280;37382;45.192;9.790;2023-04-21T02:41:53;100894.63;;;13.17;100.00
51299;BME280;37382;45.192;9.790;2023-04-21T02:44:21;100902.19;;;13.22;100.00
51299;BME280;37382;45.192;9.790;2023-04-21T02:46:48;100899.25;;;13.23;100.00
51299;BME280;37382;45.192;9.790;2023-04-21T02:49:16;100906.38;;;13.31;100.00
51299;BME280;37382;45.192;9.790;2023-04-21T02:51:44;100903.88;;;13.29;100.00
51299;BME280;37382;45.192;9.790;2023-04-21T02:54:11;100895.88;;;13.28;100.00
51299;BME280;37382;45.192;9.790;2023-04-21T02:56:39;100912.03;;;13.09;100.00
51299;BME280;37382;45.192;9.790;2023-04-21T02:59:06;100912.69;;;13.05;100.00
51299;BME280;37382;45.192;9.790;2023-04-21T03:01:34;100911.22;;;13.02;100.00
51299;BME280;37382;45.192;9.790;2023-04-21T03:04:02;100904.06;;;13.28;100.00
51299;BME280;37382;45.192;9.790;2023-04-21T03:06:32;100908.47;;;13.29;100.00
51299;BME280;37382;45.192;9.790;2023-04-21T03:08:59;100911.84;;;13.24;100.00
51299;BME280;37382;45.192;9.790;2023-04-21T03:11:27;100907.22;;;13.38;100.00
51299;BME280;37382;45.192;9.790;2023-04-21T03:13:54;100921.09;;;13.10;100.00
51299;BME280;37382;45.192;9.790;2023-04-21T03:16:22;100926.75;;;13.15;100.00
51299;BME280;37382;45.192;9.790;2023-04-21T03:18:49;100923.84;;;13.23;100.00
51299;BME280;37382;45.192;9.790;2023-04-21T03:21:17;100933.91;;;13.09;100.00
51299;BME280;37382;45.192;9.790;2023-04-21T03:23:45;100926.75;;;13.02;100.00
51299;BME280;37382;45.192;9.790;2023-04-21T03:26:12;100926.34;;;12.98;100.00
51299;BME280;37382;45.192;9.790;2023-04-21T03:28:40;100921.09;;;13.16;100.00
51299;BME280;37382;45.192;9.790;2023-04-21T03:31:08;100921.91;;;12.97;100.00
51299;BME280;37382;45.192;9.790;2023-04-21T03:33:35;100919.59;;;12.94;100.00
51299;BME280;37382;45.192;9.790;2023-04-21T03:36:03;100916.47;;;13.04;100.00
51299;BME280;37382;45.192;9.790;2023-04-21T03:38:30;100920.47;;;12.94;100.00
51299;BME280;37382;45.192;9.790;2023-04-21T03:40:58;100918.97;;;12.78;100.00
51299;BME280;37382;45.192;9.790;2023-04-21T03:43:26;100918.97;;;12.92;100.00
51299;BME280;37382;45.192;9.790;2023-04-21T03:45:54;100917.50;;;12.89;100.00
51299;BME280;37382;45.192;9.790;2023-04-21T03:48:21;100911.63;;;13.06;100.00
51299;BME280;37382;45.192;9.790;2023-04-21T03:50:49;100912.06;;;12.96;100.00
51299;BME280;37382;45.192;9.790;2023-04-21T03:53:16;100903.84;;;12.82;100.00
51299;BME280;37382;45.192;9.790;2023-04-21T03:55:44;100908.69;;;12.80;100.00
51299;BME280;37382;45.192;9.790;2023-04-21T03:58:15;100906.78;;;12.61;100.00
51299;BME280;37382;45.192;9.790;2023-04-21T04:00:42;100916.03;;;12.73;100.00
51299;BME280;37382;45.192;9.790;2023-04-21T04:03:10;100913.31;;;12.73;100.00
51299;BME280;37382;45.192;9.790;2023-04-21T04:05:37;100917.91;;;12.73;100.00
51299;BME280;37382;45.192;9.790;2023-04-21T04:08:05;100920.88;;;12.78;100.00
51299;BME280;37382;45.192;9.790;2023-04-21T04:10:33;100920.41;;;12.68;100.00
51299;BME280;37382;45.192;9.790;2023-04-21T04:13:01;100920.41;;;12.74;100.00
51299;BME280;37382;45.192;9.790;2023-04-21T04:15:28;100919.19;;;12.70;100.00
51299;BME280;37382;45.192;9.790;2023-04-21T04:17:55;100925.88;;;12.74;100.00
51299;BME280;37382;45.192;9.790;2023-04-21T04:20:23;100925.88;;;12.74;100.00
51299;BME280;37382;45.192;9.790;2023-04-21T04:22:51;100925.91;;;12.81;100.00
51299;BME280;37382;45.192;9.790;2023-04-21T04:25:19;100931.38;;;12.88;100.00
51299;BME280;37382;45.192;9.790;2023-04-21T04:27:46;100940.19;;;12.76;100.00
51299;BME280;37382;45.192;9.790;2023-04-21T04:30:15;100939.34;;;12.89;100.00
51299;BME280;37382;45.192;9.790;2023-04-21T04:32:43;100944.78;;;12.69;100.00
51299;BME280;37382;45.192;9.790;2023-04-21T04:35:11;100955.91;;;12.74;100.00
51299;BME280;37382;45.192;9.790;2023-04-21T04:37:39;100957.63;;;12.82;100.00
51299;BME280;37382;45.192;9.790;2023-04-21T04:40:07;100962.06;;;12.96;100.00
51299;BME280;37382;45.192;9.790;2023-04-21T04:42:42;100969.63;;;12.94;100.00
51299;BME280;37382;45.192;9.790;2023-04-21T04:45:11;100965.41;;;12.92;100.00
51299;BME280;37382;45.192;9.790;2023-04-21T04:47:40;100963.53;;;12.99;100.00
51299;BME280;37382;45.192;9.790;2023-04-21T04:50:08;100970.66;;;12.87;100.00
51299;BME280;37382;45.192;9.790;2023-04-21T04:52:35;100971.06;;;12.90;100.00
51299;BME280;37382;45.192;9.790;2023-04-21T04:55:02;100970.00;;;12.85;100.00
51299;BME280;37382;45.192;9.790;2023-04-21T04:57:30;100969.59;;;12.88;100.00
51299;BME280;37382;45.192;9.790;2023-04-21T04:59:58;100982.59;;;12.79;100.00
51299;BME280;37382;45.192;9.790;2023-04-21T05:02:25;100982.81;;;12.91;100.00
51299;BME280;37382;45.192;9.790;2023-04-21T05:04:53;100979.47;;;12.89;100.00
51299;BME280;37382;45.192;9.790;2023-04-21T05:07:20;100988.31;;;12.97;100.00
51299;BME280;37382;45.192;9.790;2023-04-21T05:09:48;100987.88;;;13.14;100.00
51299;BME280;37382;45.192;9.790;2023-04-21T05:12:16;100992.09;;;13.03;100.00
51299;BME280;37382;45.192;9.790;2023-04-21T05:14:43;100999.25;;;13.04;100.00
51299;BME280;37382;45.192;9.790;2023-04-21T05:17:11;100998.44;;;13.17;100.00
51299;BME280;37382;45.192;9.790;2023-04-21T05:19:38;100999.69;;;13.21;100.00
51299;BME280;37382;45.192;9.790;2023-04-21T05:22:06;101006.00;;;13.28;100.00
51299;BME280;37382;45.192;9.790;2023-04-21T05:24:34;101007.25;;;13.19;100.00
51299;BME280;37382;45.192;9.790;2023-04-21T05:27:01;101009.34;;;13.24;100.00
51299;BME280;37382;45.192;9.790;2023-04-21T05:29:31;101006.66;;;13.37;100.00
51299;BME280;37382;45.192;9.790;2023-04-21T05:32:00;101013.34;;;13.28;100.00
51299;BME280;37382;45.192;9.790;2023-04-21T05:34:28;101016.69;;;13.16;100.00
51299;BME280;37382;45.192;9.790;2023-04-21T05:36:55;101008.06;;;13.20;100.00
51299;BME280;37382;45.192;9.790;2023-04-21T05:39:23;101013.16;;;13.36;100.00
51299;BME280;37382;45.192;9.790;2023-04-21T05:41:50;101007.28;;;13.59;100.00
51299;BME280;37382;45.192;9.790;2023-04-21T05:44:18;101008.13;;;13.46;100.00
51299;BME280;37382;45.192;9.790;2023-04-21T05:46:45;101010.22;;;13.71;100.00
51299;BME280;37382;45.192;9.790;2023-04-21T05:49:13;101013.59;;;13.66;100.00
51299;BME280;37382;45.192;9.790;2023-04-21T05:51:40;101022.44;;;13.62;100.00
51299;BME280;37382;45.192;9.790;2023-04-21T05:54:08;101019.03;;;13.73;100.00
51299;BME280;37382;45.192;9.790;2023-04-21T05:56:35;101018.41;;;13.71;100.00
51299;BME280;37382;45.192;9.790;2023-04-21T05:59:03;101016.47;;;13.92;100.00
51299;BME280;37382;45.192;9.790;2023-04-21T06:01:33;101017.53;;;14.04;100.00
51299;BME280;37382;45.192;9.790;2023-04-21T06:04:00;101017.78;;;13.89;100.00
51299;BME280;37382;45.192;9.790;2023-04-21T06:06:29;101024.03;;;14.10;100.00
51299;BME280;37382;45.192;9.790;2023-04-21T06:08:56;101019.00;;;14.13;100.00
51299;BME280;37382;45.192;9.790;2023-04-21T06:11:24;101021.47;;;14.21;100.00
51299;BME280;37382;45.192;9.790;2023-04-21T06:13:52;101027.59;;;14.17;100.00
51299;BME280;37382;45.192;9.790;2023-04-21T06:16:24;101022.72;;;14.26;100.00
51299;BME280;37382;45.192;9.790;2023-04-21T06:18:53;101021.88;;;14.32;100.00
51299;BME280;37382;45.192;9.790;2023-04-21T06:21:21;101024.19;;;14.28;100.00
51299;BME280;37382;45.192;9.790;2023-04-21T06:23:48;101027.16;;;14.20;100.00
51299;BME280;37382;45.192;9.790;2023-04-21T06:26:16;101026.69;;;14.36;100.00
51299;BME280;37382;45.192;9.790;2023-04-21T06:28:43;101029.13;;;14.65;100.00
51299;BME280;37382;45.192;9.790;2023-04-21T06:31:11;101026.59;;;14.70;100.00
51299;BME280;37382;45.192;9.790;2023-04-21T06:33:41;101031.66;;;14.59;100.00
51299;BME280;37382;45.192;9.790;2023-04-21T06:36:09;101033.50;;;14.79;100.00
51299;BME280;37382;45.192;9.790;2023-04-21T06:38:37;101031.13;;;14.89;100.00
51299;BME280;37382;45.192;9.790;2023-04-21T06:41:08;101026.38;;;14.65;100.00
51299;BME280;37382;45.192;9.790;2023-04-21T06:43:36;101028.97;;;14.53;100.00
51299;BME280;37382;45.192;9.790;2023-04-21T06:46:03;101028.72;;;14.68;100.00
51299;BME280;37382;45.192;9.790;2023-04-21T06:48:31;101036.66;;;14.76;100.00
51299;BME280;37382;45.192;9.790;2023-04-21T06:50:59;101039.28;;;14.96;100.00
51299;BME280;37382;45.192;9.790;2023-04-21T06:53:27;101035.44;;;15.36;100.00
51299;BME280;37382;45.192;9.790;2023-04-21T06:55:55;101026.63;;;15.34;100.00
51299;BME280;37382;45.192;9.790;2023-04-21T06:58:23;101032.09;;;15.59;100.00
51299;BME280;37382;45.192;9.790;2023-04-21T07:00:51;101034.72;;;15.72;100.00
51299;BME280;37382;45.192;9.790;2023-04-21T07:03:19;101030.22;;;15.85;100.00
51299;BME280;37382;45.192;9.790;2023-04-21T07:05:47;101037.84;;;15.82;100.00
51299;BME280;37382;45.192;9.790;2023-04-21T07:08:14;101035.78;;;15.78;100.00
51299;BME280;37382;45.192;9.790;2023-04-21T07:10:42;101035.53;;;15.79;100.00
51299;BME280;37382;45.192;9.790;2023-04-21T07:13:09;101028.50;;;16.09;100.00
51299;BME280;37382;45.192;9.790;2023-04-21T07:15:36;101030.88;;;16.24;100.00
51299;BME280;37382;45.192;9.790;2023-04-21T07:18:04;101034.81;;;15.65;100.00
51299;BME280;37382;45.192;9.790;2023-04-21T07:20:32;101033.41;;;15.56;100.00
51299;BME280;37382;45.192;9.790;2023-04-21T07:22:59;101032.28;;;15.89;100.00
51299;BME280;37382;45.192;9.790;2023-04-21T07:25:27;101039.06;;;15.87;100.00
51299;BME280;37382;45.192;9.790;2023-04-21T07:27:54;101039.34;;;15.53;100.00
51299;BME280;37382;45.192;9.790;2023-04-21T07:30:22;101047.66;;;15.65;100.00
51299;BME280;37382;45.192;9.790;2023-04-21T07:32:49;101047.09;;;15.88;100.00
51299;BME280;37382;45.192;9.790;2023-04-21T07:35:17;101061.88;;;15.55;100.00
51299;BME280;37382;45.192;9.790;2023-04-21T07:37:46;101047.78;;;15.52;100.00
51299;BME280;37382;45.192;9.790;2023-04-21T07:40:14;101055.22;;;15.70;100.00
51299;BME280;37382;45.192;9.790;2023-04-21T07:42:42;101054.97;;;15.78;100.00
51299;BME280;37382;45.192;9.790;2023-04-21T07:45:10;101051.03;;;15.92;100.00
51299;BME280;37382;45.192;9.790;2023-04-21T07:47:37;101058.81;;;15.95;100.00
51299;BME280;37382;45.192;9.790;2023-04-21T07:50:06;101065.31;;;16.19;100.00
51299;BME280;37382;45.192;9.790;2023-04-21T07:52:34;101060.81;;;16.07;100.00
51299;BME280;37382;45.192;9.790;2023-04-21T07:55:02;101073.91;;;16.05;100.00
51299;BME280;37382;45.192;9.790;2023-04-21T07:57:30;101072.31;;;15.72;100.00
51299;BME280;37382;45.192;9.790;2023-04-21T07:59:59;101076.50;;;15.99;100.00
51299;BME280;37382;45.192;9.790;2023-04-21T08:02:27;101072.00;;;15.87;100.00
51299;BME280;37382;45.192;9.790;2023-04-21T08:04:55;101075.16;;;16.09;100.00
51299;BME280;37382;45.192;9.790;2023-04-21T08:07:23;101081.22;;;15.92;100.00
51299;BME280;37382;45.192;9.790;2023-04-21T08:09:51;101076.06;;;16.03;100.00
51299;BME280;37382;45.192;9.790;2023-04-21T08:12:18;101080.03;;;16.07;100.00
51299;BME280;37382;45.192;9.790;2023-04-21T08:14:47;101085.72;;;15.87;100.00
51299;BME280;37382;45.192;9.790;2023-04-21T08:17:15;101083.41;;;15.83;100.00
51299;BME280;37382;45.192;9.790;2023-04-21T08:19:42;101090.38;;;16.05;100.00
51299;BME280;37382;45.192;9.790;2023-04-21T08:22:10;101087.47;;;15.99;100.00
51299;BME280;37382;45.192;9.790;2023-04-21T08:24:38;101094.38;;;16.27;100.00
51299;BME280;37382;45.192;9.790;2023-04-21T08:27:05;101095.47;;;16.26;100.00
51299;BME280;37382;45.192;9.790;2023-04-21T08:29:33;101097.53;;;15.87;100.00
51299;BME280;37382;45.192;9.790;2023-04-21T08:32:00;101098.25;;;15.69;100.00
51299;BME280;37382;45.192;9.790;2023-04-21T08:34:29;101097.38;;;15.75;100.00
51299;BME280;37382;45.192;9.790;2023-04-21T08:36:57;101103.84;;;15.88;100.00
51299;BME280;37382;45.192;9.790;2023-04-21T08:39:24;101108.72;;;15.86;100.00
51299;BME280;37382;45.192;9.790;2023-04-21T08:41:53;101116.44;;;16.21;100.00
51299;BME280;37382;45.192;9.790;2023-04-21T08:44:21;101111.41;;;16.36;100.00
51299;BME280;37382;45.192;9.790;2023-04-21T08:46:48;101103.50;;;16.65;100.00
51299;BME280;37382;45.192;9.790;2023-04-21T08:49:19;101110.28;;;16.44;100.00
51299;BME280;37382;45.192;9.790;2023-04-21T08:51:47;101114.19;;;16.11;100.00
51299;BME280;37382;45.192;9.790;2023-04-21T08:54:15;101107.97;;;16.78;100.00
51299;BME280;37382;45.192;9.790;2023-04-21T08:56:43;101109.31;;;17.24;100.00
51299;BME280;37382;45.192;9.790;2023-04-21T08:59:11;101111.94;;;17.00;100.00
51299;BME280;37382;45.192;9.790;2023-04-21T09:02:17;101112.06;;;17.24;100.00
51299;BME280;37382;45.192;9.790;2023-04-21T09:04:57;101113.50;;;16.96;100.00
51299;BME280;37382;45.192;9.790;2023-04-21T09:07:35;101111.50;;;16.48;100.00
51299;BME280;37382;45.192;9.790;2023-04-21T09:10:04;101111.34;;;16.98;100.00
51299;BME280;37382;45.192;9.790;2023-04-21T09:12:32;101099.06;;;17.01;100.00
51299;BME280;37382;45.192;9.790;2023-04-21T09:15:03;101103.78;;;17.54;100.00
51299;BME280;37382;45.192;9.790;2023-04-21T09:17:31;101093.16;;;17.58;100.00
51299;BME280;37382;45.192;9.790;2023-04-21T09:20:16;101103.72;;;17.85;100.00
51299;BME280;37382;45.192;9.790;2023-04-21T09:22:47;101109.63;;;18.24;100.00
51299;BME280;37382;45.192;9.790;2023-04-21T09:25:19;101107.59;;;18.55;100.00
51299;BME280;37382;45.192;9.790;2023-04-21T09:27:46;101108.81;;;18.35;100.00
51299;BME280;37382;45.192;9.790;2023-04-21T09:30:18;101114.16;;;18.30;100.00
51299;BME280;37382;45.192;9.790;2023-04-21T09:32:46;101115.44;;;17.68;100.00
51299;BME280;37382;45.192;9.790;2023-04-21T09:35:14;101118.50;;;18.26;100.00
51299;BME280;37382;45.192;9.790;2023-04-21T09:37:42;101111.19;;;18.31;100.00
51299;BME280;37382;45.192;9.790;2023-04-21T09:40:17;101110.94;;;17.98;100.00
51299;BME280;37382;45.192;9.790;2023-04-21T09:42:44;101119.81;;;18.23;100.00
51299;BME280;37382;45.192;9.790;2023-04-21T09:45:13;101110.44;;;18.36;100.00
51299;BME280;37382;45.192;9.790;2023-04-21T09:47:48;101110.00;;;18.04;100.00
51299;BME280;37382;45.192;9.790;2023-04-21T09:50:19;101115.03;;;18.30;100.00
51299;BME280;37382;45.192;9.790;2023-04-21T09:53:13;101112.84;;;18.21;100.00
51299;BME280;37382;45.192;9.790;2023-04-21T09:55:41;101108.56;;;19.30;100.00
51299;BME280;37382;45.192;9.790;2023-04-21T09:58:12;101117.25;;;19.22;100.00
51299;BME280;37382;45.192;9.790;2023-04-21T10:00:42;101115.88;;;18.95;100.00
51299;BME280;37382;45.192;9.790;2023-04-21T10:03:11;101115.88;;;19.70;100.00
51299;BME280;37382;45.192;9.790;2023-04-21T10:05:40;101115.06;;;19.52;100.00
51299;BME280;37382;45.192;9.790;2023-04-21T10:08:10;101109.59;;;19.41;100.00
51299;BME280;37382;45.192;9.790;2023-04-21T10:10:38;101111.78;;;19.38;100.00
51299;BME280;37382;45.192;9.790;2023-04-21T10:13:12;101108.13;;;19.67;100.00
51299;BME280;37382;45.192;9.790;2023-04-21T10:15:42;101110.69;;;19.56;100.00
51299;BME280;37382;45.192;9.790;2023-04-21T10:18:21;101103.69;;;19.66;100.00
51299;BME280;37382;45.192;9.790;2023-04-21T10:21:05;101104.91;;;19.41;100.00
51299;BME280;37382;45.192;9.790;2023-04-21T10:23:46;101106.53;;;18.96;100.00
51299;BME280;37382;45.192;9.790;2023-04-21T10:26:23;101106.19;;;18.81;100.00
51299;BME280;37382;45.192;9.790;2023-04-21T10:28:56;101104.63;;;19.26;100.00
51299;BME280;37382;45.192;9.790;2023-04-21T10:31:56;101099.56;;;19.51;100.00
51299;BME280;37382;45.192;9.790;2023-04-21T10:34:37;101090.97;;;20.16;100.00
51299;BME280;37382;45.192;9.790;2023-04-21T10:39:33;101093.09;;;19.91;100.00
51299;BME280;37382;45.192;9.790;2023-04-21T10:47:45;101099.72;;;18.99;100.00
51299;BME280;37382;45.192;9.790;2023-04-21T10:50:15;101094.09;;;19.23;100.00
51299;BME280;37382;45.192;9.790;2023-04-21T10:53:06;101089.84;;;19.49;100.00
51299;BME280;37382;45.192;9.790;2023-04-21T10:55:32;101085.13;;;19.61;100.00
51299;BME280;37382;45.192;9.790;2023-04-21T10:58:02;101078.78;;;19.78;100.00
51299;BME280;37382;45.192;9.790;2023-04-21T11:00:31;101075.34;;;19.70;100.00
51299;BME280;37382;45.192;9.790;2023-04-21T11:03:04;101072.16;;;20.13;100.00
51299;BME280;37382;45.192;9.790;2023-04-21T11:05:35;101066.59;;;20.69;100.00
51299;BME280;37382;45.192;9.790;2023-04-21T11:13:13;101061.41;;;21.54;100.00
51299;BME280;37382;45.192;9.790;2023-04-21T11:15:58;101065.69;;;21.40;100.00
51299;BME280;37382;45.192;9.790;2023-04-21T11:18:40;101055.97;;;20.60;100.00
51299;BME280;37382;45.192;9.790;2023-04-21T11:21:14;101064.03;;;21.11;100.00
51299;BME280;37382;45.192;9.790;2023-04-21T11:23:52;101056.75;;;21.32;100.00
51299;BME280;37382;45.192;9.790;2023-04-21T11:26:36;101056.66;;;21.22;100.00
51299;BME280;37382;45.192;9.790;2023-04-21T11:29:06;101069.28;;;20.86;100.00
51299;BME280;37382;45.192;9.790;2023-04-21T11:31:35;101063.91;;;20.74;100.00
51299;BME280;37382;45.192;9.790;2023-04-21T11:34:05;101060.63;;;20.77;100.00
51299;BME280;37382;45.192;9.790;2023-04-21T11:36:34;101065.72;;;20.90;100.00
51299;BME280;37382;45.192;9.790;2023-04-21T11:39:05;101064.34;;;21.15;100.00
51299;BME280;37382;45.192;9.790;2023-04-21T11:41:41;101067.75;;;20.73;100.00
51299;BME280;37382;45.192;9.790;2023-04-21T11:44:13;101064.22;;;20.38;100.00
51299;BME280;37382;45.192;9.790;2023-04-21T11:46:56;101073.06;;;20.57;100.00
51299;BME280;37382;45.192;9.790;2023-04-21T11:49:25;101068.44;;;20.85;100.00
51299;BME280;37382;45.192;9.790;2023-04-21T11:51:55;101062.81;;;21.02;100.00
51299;BME280;37382;45.192;9.790;2023-04-21T11:54:22;101069.94;;;21.20;100.00
51299;BME280;37382;45.192;9.790;2023-04-21T11:56:53;101061.47;;;21.32;100.00
51299;BME280;37382;45.192;9.790;2023-04-21T11:59:22;101064.50;;;21.30;100.00
51299;BME280;37382;45.192;9.790;2023-04-21T12:01:53;101069.03;;;21.14;100.00
51299;BME280;37382;45.192;9.790;2023-04-21T12:04:22;101061.06;;;21.18;100.00
51299;BME280;37382;45.192;9.790;2023-04-21T12:07:00;101052.69;;;22.05;100.00
51299;BME280;37382;45.192;9.790;2023-04-21T12:09:28;101052.69;;;22.05;100.00
51299;BME280;37382;45.192;9.790;2023-04-21T12:11:57;101051.31;;;22.55;100.00
51299;BME280;37382;45.192;9.790;2023-04-21T12:14:25;101056.53;;;22.04;100.00
51299;BME280;37382;45.192;9.790;2023-04-21T12:16:56;101047.50;;;22.72;100.00
51299;BME280;37382;45.192;9.790;2023-04-21T12:22:06;101066.75;;;21.98;100.00
51299;BME280;37382;45.192;9.790;2023-04-21T12:24:35;101057.00;;;22.33;100.00
51299;BME280;37382;45.192;9.790;2023-04-21T12:27:04;101056.97;;;22.28;100.00
51299;BME280;37382;45.192;9.790;2023-04-21T12:29:32;101055.81;;;22.24;96.98
51299;BME280;37382;45.192;9.790;2023-04-21T12:32:05;101057.75;;;22.24;95.65
51299;BME280;37382;45.192;9.790;2023-04-21T12:34:33;101061.72;;;22.33;98.86
51299;BME280;37382;45.192;9.790;2023-04-21T12:37:02;101061.03;;;22.68;92.28
51299;BME280;37382;45.192;9.790;2023-04-21T12:39:30;101049.06;;;23.47;92.40
51299;BME280;37382;45.192;9.790;2023-04-21T12:41:58;101045.84;;;22.91;92.99
51299;BME280;37382;45.192;9.790;2023-04-21T12:44:27;101052.94;;;22.56;91.16
51299;BME280;37382;45.192;9.790;2023-04-21T12:46:54;101049.63;;;22.54;92.33
51299;BME280;37382;45.192;9.790;2023-04-21T12:49:24;101045.16;;;22.48;92.30
51299;BME280;37382;45.192;9.790;2023-04-21T12:51:52;101034.72;;;22.66;91.59
51299;BME280;37382;45.192;9.790;2023-04-21T12:54:19;101026.56;;;23.38;86.66
51299;BME280;37382;45.192;9.790;2023-04-21T12:56:47;101026.81;;;23.57;84.17
51299;BME280;37382;45.192;9.790;2023-04-21T12:59:14;101023.22;;;23.51;86.18
51299;BME280;37382;45.192;9.790;2023-04-21T13:01:42;101024.88;;;23.88;82.45
51299;BME280;37382;45.192;9.790;2023-04-21T13:04:10;101020.97;;;23.69;83.44
51299;BME280;37382;45.192;9.790;2023-04-21T13:06:38;101020.69;;;23.96;82.81